createdAt,value
2022-10-10T00:00:14.885Z,9.99
2022-10-10T00:01:14.864Z,10.03
2022-10-10T00:02:14.928Z,9.91
2022-10-10T00:03:14.843Z,9.93
2022-10-10T00:04:14.822Z,9.93
2022-10-10T00:05:14.826Z,9.94
2022-10-10T00:06:14.805Z,9.83
2022-10-10T00:07:14.835Z,9.85
2022-10-10T00:08:14.773Z,9.88
2022-10-10T00:09:14.766Z,9.96
2022-10-10T00:10:14.738Z,10.03
2022-10-10T00:11:14.752Z,10.07
2022-10-10T00:12:14.726Z,10.14
2022-10-10T00:13:14.741Z,10.19
2022-10-10T00:14:14.682Z,10.21
2022-10-10T00:15:14.678Z,10.22
2022-10-10T00:16:14.664Z,10.19
2022-10-10T00:17:14.685Z,10.12
2022-10-10T00:18:14.638Z,10.14
2022-10-10T00:19:14.621Z,10.17
2022-10-10T00:20:14.617Z,10.12
2022-10-10T00:21:14.607Z,10.14
2022-10-10T00:22:14.589Z,10.10
2022-10-10T00:23:14.591Z,10.14
2022-10-10T00:24:15.504Z,10.10
2022-10-10T00:25:14.574Z,10.06
2022-10-10T00:26:18.891Z,10.06
2022-10-10T00:27:14.580Z,10.04
2022-10-10T00:28:14.538Z,10.04
2022-10-10T00:29:14.621Z,10.10
2022-10-10T00:30:14.477Z,10.09
2022-10-10T00:31:14.468Z,10.12
2022-10-10T00:32:14.488Z,10.15
2022-10-10T00:33:14.449Z,10.10
2022-10-10T00:34:14.436Z,10.04
2022-10-10T00:35:14.429Z,10.07
2022-10-10T00:36:14.398Z,10.04
2022-10-10T00:37:14.408Z,10.04
2022-10-10T00:38:14.375Z,10.04
2022-10-10T00:39:14.386Z,10.00
2022-10-10T00:40:14.355Z,9.96
2022-10-10T00:41:14.354Z,9.94
2022-10-10T00:42:14.315Z,9.96
2022-10-10T00:43:14.334Z,9.99
2022-10-10T00:44:14.306Z,9.94
2022-10-10T00:45:14.282Z,9.96
2022-10-10T00:46:14.260Z,9.99
2022-10-10T00:47:14.259Z,10.01
2022-10-10T00:48:14.266Z,9.94
2022-10-10T00:49:14.249Z,9.88
2022-10-10T00:50:14.215Z,9.81
2022-10-10T00:51:14.207Z,9.81
2022-10-10T00:52:14.206Z,9.78
2022-10-10T00:53:14.180Z,9.76
2022-10-10T00:54:14.173Z,9.82
2022-10-10T00:55:14.175Z,9.81
2022-10-10T00:56:14.147Z,9.82
2022-10-10T00:57:14.162Z,9.83
2022-10-10T00:58:14.124Z,9.88
2022-10-10T00:59:14.102Z,9.91
2022-10-10T01:00:14.118Z,9.88
2022-10-10T01:01:14.111Z,9.79
2022-10-10T01:02:14.062Z,9.75
2022-10-10T01:03:14.055Z,9.73
2022-10-10T01:04:14.053Z,9.73
2022-10-10T01:05:14.025Z,9.79
2022-10-10T01:06:14.010Z,9.79
2022-10-10T01:07:13.999Z,9.78
2022-10-10T01:08:13.992Z,9.82
2022-10-10T01:09:13.970Z,9.82
2022-10-10T01:10:13.961Z,9.88
2022-10-10T01:11:13.940Z,9.93
2022-10-10T01:12:13.938Z,9.96
2022-10-10T01:13:13.931Z,9.94
2022-10-10T01:14:13.917Z,9.88
2022-10-10T01:15:13.904Z,9.86
2022-10-10T01:16:13.884Z,9.88
2022-10-10T01:17:13.860Z,9.86
2022-10-10T01:18:13.858Z,9.73
2022-10-10T01:19:13.840Z,9.73
2022-10-10T01:20:13.818Z,9.70
2022-10-10T01:21:13.820Z,9.73
2022-10-10T01:22:13.793Z,9.70
2022-10-10T01:23:13.795Z,9.66
2022-10-10T01:24:13.788Z,9.57
2022-10-10T01:25:13.762Z,9.56
2022-10-10T01:26:13.742Z,9.58
2022-10-10T01:27:13.730Z,9.61
2022-10-10T01:28:13.762Z,9.66
2022-10-10T01:29:13.730Z,9.71
2022-10-10T01:30:13.699Z,9.71
2022-10-10T01:31:13.683Z,9.63
2022-10-10T01:32:13.660Z,9.52
2022-10-10T01:33:13.664Z,9.49
2022-10-10T01:34:13.635Z,9.49
2022-10-10T01:35:13.644Z,9.53
2022-10-10T01:36:13.619Z,9.52
2022-10-10T01:37:13.603Z,9.49
2022-10-10T01:38:13.592Z,9.50
2022-10-10T01:39:13.583Z,9.49
2022-10-10T01:40:13.567Z,9.56
2022-10-10T01:41:13.567Z,9.61
2022-10-10T01:42:13.531Z,9.57
2022-10-10T01:43:13.538Z,9.53
2022-10-10T01:44:13.508Z,9.57
2022-10-10T01:45:13.520Z,9.60
2022-10-10T01:46:13.477Z,9.58
2022-10-10T01:47:13.491Z,9.57
2022-10-10T01:48:13.473Z,9.53
2022-10-10T01:49:13.463Z,9.46
2022-10-10T01:50:13.428Z,9.40
2022-10-10T01:51:13.431Z,9.42
2022-10-10T01:52:13.410Z,9.39
2022-10-10T01:53:13.532Z,9.27
2022-10-10T01:54:13.385Z,9.24
2022-10-10T01:55:13.360Z,9.25
2022-10-10T01:56:13.349Z,9.32
2022-10-10T01:57:13.351Z,9.31
2022-10-10T01:58:13.355Z,9.27
2022-10-10T01:59:13.309Z,9.24
2022-10-10T02:00:13.311Z,9.20
2022-10-10T02:01:13.355Z,9.21
2022-10-10T02:02:13.273Z,9.23
2022-10-10T02:03:13.287Z,9.20
2022-10-10T02:04:13.248Z,9.18
2022-10-10T02:05:13.249Z,9.24
2022-10-10T02:06:13.231Z,9.30
2022-10-10T02:07:13.221Z,9.30
2022-10-10T02:08:13.214Z,9.21
2022-10-10T02:09:13.182Z,9.09
2022-10-10T02:10:13.170Z,9.04
2022-10-10T02:11:13.157Z,9.05
2022-10-10T02:12:13.161Z,9.04
2022-10-10T02:13:13.137Z,9.02
2022-10-10T02:14:13.121Z,9.02
2022-10-10T02:15:13.107Z,8.97
2022-10-10T02:16:13.088Z,8.97
2022-10-10T02:17:13.072Z,9.02
2022-10-10T02:18:13.076Z,9.06
2022-10-10T02:19:13.081Z,9.09
2022-10-10T02:20:13.059Z,9.12
2022-10-10T02:21:13.023Z,9.10
2022-10-10T02:22:13.010Z,9.10
2022-10-10T02:23:13.031Z,9.13
2022-10-10T02:24:13.935Z,9.16
2022-10-10T02:25:12.961Z,9.18
2022-10-10T02:26:12.948Z,9.15
2022-10-10T02:27:12.955Z,9.10
2022-10-10T02:28:13.018Z,9.13
2022-10-10T02:29:12.920Z,9.21
2022-10-10T02:30:12.904Z,9.15
2022-10-10T02:31:12.886Z,9.15
2022-10-10T02:32:12.866Z,9.09
2022-10-10T02:33:12.872Z,9.09
2022-10-10T02:34:12.842Z,9.02
2022-10-10T02:35:12.835Z,8.97
2022-10-10T02:36:12.811Z,8.96
2022-10-10T02:37:12.803Z,8.96
2022-10-10T02:38:12.831Z,8.88
2022-10-10T02:39:12.767Z,8.83
2022-10-10T02:40:12.769Z,8.86
2022-10-10T02:41:12.762Z,8.93
2022-10-10T02:42:12.739Z,8.97
2022-10-10T02:43:12.733Z,8.94
2022-10-10T02:44:12.719Z,8.97
2022-10-10T02:45:12.689Z,8.97
2022-10-10T02:46:12.681Z,9.02
2022-10-10T02:47:12.671Z,9.05
2022-10-10T02:48:12.682Z,9.05
2022-10-10T02:49:12.635Z,9.01
2022-10-10T02:50:12.620Z,9.05
2022-10-10T02:51:12.629Z,9.09
2022-10-10T02:52:12.597Z,9.05
2022-10-10T02:53:12.595Z,9.01
2022-10-10T02:54:12.588Z,8.96
2022-10-10T02:55:12.549Z,8.94
2022-10-10T02:56:12.560Z,8.93
2022-10-10T02:57:12.535Z,8.96
2022-10-10T02:58:12.532Z,8.91
2022-10-10T02:59:12.501Z,8.94
2022-10-10T03:00:12.488Z,8.99
2022-10-10T03:01:12.512Z,8.96
2022-10-10T03:02:12.478Z,8.94
2022-10-10T03:03:12.482Z,8.93
2022-10-10T03:04:12.437Z,8.79
2022-10-10T03:05:12.417Z,8.71
2022-10-10T03:06:12.423Z,8.66
2022-10-10T03:07:12.405Z,8.62
2022-10-10T03:08:12.416Z,8.65
2022-10-10T03:09:12.379Z,8.71
2022-10-10T03:10:12.365Z,8.62
2022-10-10T03:11:12.345Z,8.55
2022-10-10T03:12:12.345Z,8.50
2022-10-10T03:13:12.320Z,8.54
2022-10-10T03:14:12.319Z,8.53
2022-10-10T03:15:12.374Z,8.55
2022-10-10T03:16:12.300Z,8.57
2022-10-10T03:17:12.265Z,8.53
2022-10-10T03:18:12.314Z,8.55
2022-10-10T03:19:12.236Z,8.63
2022-10-10T03:20:12.242Z,8.68
2022-10-10T03:21:12.210Z,8.72
2022-10-10T03:22:12.206Z,8.68
2022-10-10T03:23:12.180Z,8.68
2022-10-10T03:24:12.190Z,8.68
2022-10-10T03:25:12.170Z,8.62
2022-10-10T03:26:12.146Z,8.53
2022-10-10T03:27:12.125Z,8.44
2022-10-10T03:28:12.180Z,8.39
2022-10-10T03:29:12.122Z,8.39
2022-10-10T03:30:12.088Z,8.44
2022-10-10T03:31:12.086Z,8.50
2022-10-10T03:32:12.065Z,8.54
2022-10-10T03:33:12.076Z,8.54
2022-10-10T03:34:12.054Z,8.55
2022-10-10T03:35:12.016Z,8.55
2022-10-10T03:36:12.015Z,8.58
2022-10-10T03:37:11.999Z,8.55
2022-10-10T03:38:12.002Z,8.45
2022-10-10T03:39:11.988Z,8.42
2022-10-10T03:40:11.976Z,8.39
2022-10-10T03:41:11.947Z,8.40
2022-10-10T03:42:11.932Z,8.45
2022-10-10T03:43:11.913Z,8.42
2022-10-10T03:44:11.936Z,8.42
2022-10-10T03:45:11.894Z,8.44
2022-10-10T03:46:15.935Z,8.44
2022-10-10T03:47:11.854Z,8.47
2022-10-10T03:48:11.868Z,8.36
2022-10-10T03:49:11.989Z,8.35
2022-10-10T03:50:11.827Z,8.40
2022-10-10T03:51:11.813Z,8.39
2022-10-10T03:52:11.804Z,8.37
2022-10-10T03:53:11.784Z,8.36
2022-10-10T03:54:11.776Z,8.37
2022-10-10T03:55:11.753Z,8.42
2022-10-10T03:56:11.747Z,8.37
2022-10-10T03:57:11.722Z,8.32
2022-10-10T03:58:11.711Z,8.33
2022-10-10T03:59:11.733Z,8.36
2022-10-10T04:00:11.693Z,8.32
2022-10-10T04:01:11.718Z,8.32
2022-10-10T04:02:11.657Z,8.36
2022-10-10T04:03:11.645Z,8.32
2022-10-10T04:04:11.654Z,8.32
2022-10-10T04:05:11.639Z,8.36
2022-10-10T04:06:11.626Z,8.37
2022-10-10T04:07:11.585Z,8.39
2022-10-10T04:08:11.588Z,8.35
2022-10-10T04:09:11.585Z,8.35
2022-10-10T04:10:11.552Z,8.35
2022-10-10T04:11:11.535Z,8.30
2022-10-10T04:12:11.531Z,8.29
2022-10-10T04:13:11.516Z,8.28
2022-10-10T04:14:11.536Z,8.26
2022-10-10T04:15:11.492Z,8.17
2022-10-10T04:16:11.477Z,8.11
2022-10-10T04:17:11.453Z,8.08
2022-10-10T04:18:11.472Z,8.11
2022-10-10T04:19:11.445Z,8.14
2022-10-10T04:20:11.427Z,8.12
2022-10-10T04:21:11.407Z,8.15
2022-10-10T04:22:11.460Z,8.12
2022-10-10T04:23:11.397Z,8.07
2022-10-10T04:24:11.366Z,8.03
2022-10-10T04:25:11.362Z,8.04
2022-10-10T04:26:11.344Z,8.03
2022-10-10T04:27:11.340Z,8.07
2022-10-10T04:28:11.331Z,8.08
2022-10-10T04:29:11.303Z,8.11
2022-10-10T04:30:11.311Z,8.14
2022-10-10T04:31:11.279Z,8.17
2022-10-10T04:32:11.286Z,8.08
2022-10-10T04:33:11.246Z,8.07
2022-10-10T04:34:11.257Z,8.07
2022-10-10T04:35:11.239Z,8.10
2022-10-10T04:36:11.213Z,7.96
2022-10-10T04:37:11.199Z,7.89
2022-10-10T04:38:11.201Z,7.87
2022-10-10T04:39:11.199Z,7.85
2022-10-10T04:40:11.167Z,7.90
2022-10-10T04:41:11.146Z,7.97
2022-10-10T04:42:11.143Z,7.96
2022-10-10T04:43:11.109Z,7.96
2022-10-10T04:44:11.137Z,7.97
2022-10-10T04:45:11.102Z,7.94
2022-10-10T04:46:11.074Z,7.89
2022-10-10T04:47:11.193Z,7.93
2022-10-10T04:48:11.065Z,7.96
2022-10-10T04:49:11.070Z,7.99
2022-10-10T04:50:11.032Z,7.97
2022-10-10T04:51:11.007Z,8.02
2022-10-10T04:52:11.014Z,8.02
2022-10-10T04:53:10.993Z,8.04
2022-10-10T04:54:10.992Z,7.97
2022-10-10T04:55:10.987Z,7.90
2022-10-10T04:56:10.951Z,7.85
2022-10-10T04:57:10.962Z,7.87
2022-10-10T04:58:10.922Z,7.89
2022-10-10T04:59:10.913Z,7.75
2022-10-10T05:00:10.899Z,7.77
2022-10-10T05:01:10.969Z,7.78
2022-10-10T05:02:10.875Z,7.81
2022-10-10T05:03:10.852Z,7.82
2022-10-10T05:04:10.858Z,7.85
2022-10-10T05:05:10.832Z,7.90
2022-10-10T05:06:10.841Z,7.90
2022-10-10T05:07:10.812Z,7.87
2022-10-10T05:08:10.791Z,7.90
2022-10-10T05:09:10.775Z,7.92
2022-10-10T05:10:10.791Z,7.92
2022-10-10T05:11:10.751Z,7.92
2022-10-10T05:12:10.738Z,7.93
2022-10-10T05:13:10.732Z,7.94
2022-10-10T05:14:10.725Z,8.00
2022-10-10T05:15:10.710Z,8.04
2022-10-10T05:16:10.691Z,8.03
2022-10-10T05:17:10.679Z,7.99
2022-10-10T05:18:10.661Z,7.89
2022-10-10T05:19:10.656Z,7.85
2022-10-10T05:20:10.653Z,7.81
2022-10-10T05:21:10.620Z,7.85
2022-10-10T05:22:10.622Z,7.85
2022-10-10T05:23:10.591Z,7.87
2022-10-10T05:24:10.616Z,7.89
2022-10-10T05:25:10.589Z,7.89
2022-10-10T05:26:10.568Z,7.82
2022-10-10T05:27:10.546Z,7.77
2022-10-10T05:28:10.603Z,7.78
2022-10-10T05:29:10.546Z,7.82
2022-10-10T05:30:10.500Z,7.84
2022-10-10T05:31:10.500Z,7.85
2022-10-10T05:32:10.780Z,7.89
2022-10-10T05:33:10.471Z,7.89
2022-10-10T05:34:10.461Z,7.90
2022-10-10T05:35:10.436Z,7.93
2022-10-10T05:36:10.431Z,7.89
2022-10-10T05:37:10.438Z,7.85
2022-10-10T05:38:10.399Z,7.87
2022-10-10T05:39:10.399Z,7.84
2022-10-10T05:40:10.377Z,7.84
2022-10-10T05:41:10.363Z,7.85
2022-10-10T05:42:10.355Z,7.82
2022-10-10T05:43:10.347Z,7.82
2022-10-10T05:44:10.358Z,7.81
2022-10-10T05:45:10.437Z,7.79
2022-10-10T05:46:10.296Z,7.81
2022-10-10T05:47:10.288Z,7.82
2022-10-10T05:48:10.285Z,7.74
2022-10-10T05:49:10.273Z,7.74
2022-10-10T05:50:10.251Z,7.78
2022-10-10T05:51:12.887Z,7.72
2022-10-10T05:52:10.226Z,7.63
2022-10-10T05:53:10.200Z,7.67
2022-10-10T05:54:10.215Z,7.72
2022-10-10T05:55:10.184Z,7.77
2022-10-10T05:56:10.168Z,7.77
2022-10-10T05:57:15.350Z,7.79
2022-10-10T05:58:11.144Z,7.81
2022-10-10T05:59:10.183Z,7.85
2022-10-10T06:00:10.275Z,7.81
2022-10-10T06:01:10.122Z,7.81
2022-10-10T06:02:10.180Z,7.79
2022-10-10T06:03:10.122Z,7.79
2022-10-10T06:04:10.085Z,7.78
2022-10-10T06:05:10.183Z,7.71
2022-10-10T06:06:10.052Z,7.72
2022-10-10T06:07:10.035Z,7.78
2022-10-10T06:08:12.058Z,7.79
2022-10-10T06:09:10.030Z,7.79
2022-10-10T06:10:10.012Z,7.75
2022-10-10T06:11:09.982Z,7.79
2022-10-10T06:12:09.968Z,7.79
2022-10-10T06:13:09.950Z,7.79
2022-10-10T06:14:09.965Z,7.75
2022-10-10T06:15:09.923Z,7.77
2022-10-10T06:16:09.918Z,7.84
2022-10-10T06:17:09.911Z,7.93
2022-10-10T06:18:09.882Z,7.96
2022-10-10T06:19:14.627Z,7.99
2022-10-10T06:20:10.862Z,7.97
2022-10-10T06:21:09.839Z,7.94
2022-10-10T06:22:09.849Z,7.93
2022-10-10T06:23:09.815Z,7.94
2022-10-10T06:24:09.831Z,7.92
2022-10-10T06:25:28.953Z,7.93
2022-10-10T06:26:10.794Z,7.90
2022-10-10T06:27:09.770Z,7.85
2022-10-10T06:28:09.851Z,7.92
2022-10-10T06:29:09.755Z,7.94
2022-10-10T06:30:09.729Z,7.92
2022-10-10T06:31:09.700Z,7.93
2022-10-10T06:32:09.705Z,8.00
2022-10-10T06:33:09.693Z,8.00
2022-10-10T06:34:09.733Z,7.99
2022-10-10T06:35:09.662Z,7.96
2022-10-10T06:36:09.658Z,8.02
2022-10-10T06:37:09.641Z,8.08
2022-10-10T06:38:09.630Z,8.10
2022-10-10T06:39:09.624Z,8.15
2022-10-10T06:40:09.624Z,8.18
2022-10-10T06:41:09.589Z,8.17
2022-10-10T06:42:09.574Z,8.14
2022-10-10T06:43:09.550Z,8.17
2022-10-10T06:44:09.562Z,8.22
2022-10-10T06:45:09.526Z,8.26
2022-10-10T06:46:09.546Z,8.29
2022-10-10T06:47:09.507Z,8.30
2022-10-10T06:48:09.497Z,8.29
2022-10-10T06:49:09.478Z,8.32
2022-10-10T06:50:09.481Z,8.39
2022-10-10T06:51:09.475Z,8.47
2022-10-10T06:52:09.429Z,8.48
2022-10-10T06:53:09.431Z,8.42
2022-10-10T06:54:09.414Z,8.40
2022-10-10T06:55:09.398Z,8.39
2022-10-10T06:56:09.388Z,8.39
2022-10-10T06:57:09.387Z,8.45
2022-10-10T06:58:09.346Z,8.51
2022-10-10T06:59:09.351Z,8.54
2022-10-10T07:00:09.336Z,8.62
2022-10-10T07:01:09.486Z,8.66
2022-10-10T07:02:09.314Z,8.71
2022-10-10T07:03:09.298Z,8.78
2022-10-10T07:04:09.286Z,8.84
2022-10-10T07:05:09.271Z,8.91
2022-10-10T07:06:09.267Z,8.93
2022-10-10T07:07:09.249Z,8.87
2022-10-10T07:08:09.257Z,8.81
2022-10-10T07:09:09.263Z,8.87
2022-10-10T07:10:09.207Z,8.94
2022-10-10T07:11:09.180Z,8.93
2022-10-10T07:12:09.180Z,8.93
2022-10-10T07:13:09.167Z,8.87
2022-10-10T07:14:09.143Z,8.87
2022-10-10T07:15:09.133Z,8.93
2022-10-10T07:16:09.119Z,9.02
2022-10-10T07:17:09.117Z,9.05
2022-10-10T07:18:09.088Z,9.12
2022-10-10T07:19:09.116Z,9.10
2022-10-10T07:20:09.074Z,9.09
2022-10-10T07:21:09.061Z,9.09
2022-10-10T07:22:09.031Z,9.12
2022-10-10T07:23:09.014Z,9.06
2022-10-10T07:24:09.024Z,9.12
2022-10-10T07:25:08.995Z,9.20
2022-10-10T07:26:08.994Z,9.18
2022-10-10T07:27:09.143Z,9.21
2022-10-10T07:28:09.024Z,9.30
2022-10-10T07:29:08.963Z,9.35
2022-10-10T07:30:08.934Z,9.43
2022-10-10T07:31:08.920Z,9.48
2022-10-10T07:32:08.904Z,9.52
2022-10-10T07:33:08.910Z,9.52
2022-10-10T07:34:08.907Z,9.52
2022-10-10T07:35:08.871Z,9.49
2022-10-10T07:36:08.865Z,9.53
2022-10-10T07:37:08.849Z,9.53
2022-10-10T07:38:08.836Z,9.57
2022-10-10T07:39:09.643Z,9.64
2022-10-10T07:40:08.798Z,9.67
2022-10-10T07:41:08.912Z,9.70
2022-10-10T07:42:08.778Z,9.70
2022-10-10T07:43:08.785Z,9.68
2022-10-10T07:44:08.756Z,9.68
2022-10-10T07:45:08.731Z,9.67
2022-10-10T07:46:11.439Z,9.71
2022-10-10T07:47:08.706Z,9.71
2022-10-10T07:48:08.730Z,9.78
2022-10-10T07:49:08.704Z,9.85
2022-10-10T07:50:08.666Z,9.89
2022-10-10T07:51:08.657Z,9.96
2022-10-10T07:52:08.669Z,10.00
2022-10-10T07:53:08.648Z,10.04
2022-10-10T07:54:08.614Z,10.06
2022-10-10T07:55:08.618Z,10.14
2022-10-10T07:56:08.598Z,10.17
2022-10-10T07:57:08.596Z,10.22
2022-10-10T07:58:08.569Z,10.25
2022-10-10T07:59:08.552Z,10.33
2022-10-10T08:00:08.559Z,10.36
2022-10-10T08:01:08.545Z,10.39
2022-10-10T08:02:08.583Z,10.44
2022-10-10T08:03:11.758Z,10.51
2022-10-10T08:04:08.518Z,10.56
2022-10-10T08:05:08.467Z,10.59
2022-10-10T08:06:08.462Z,10.63
2022-10-10T08:07:08.451Z,10.70
2022-10-10T08:08:08.426Z,10.70
2022-10-10T08:09:08.460Z,10.76
2022-10-10T08:10:08.401Z,10.80
2022-10-10T08:11:08.392Z,10.88
2022-10-10T08:12:08.378Z,10.89
2022-10-10T08:13:08.373Z,10.92
2022-10-10T08:14:08.365Z,10.94
2022-10-10T08:15:08.393Z,10.98
2022-10-10T08:16:08.327Z,10.99
2022-10-10T08:17:08.307Z,11.07
2022-10-10T08:18:08.293Z,11.13
2022-10-10T08:19:08.347Z,11.21
2022-10-10T08:20:08.271Z,11.19
2022-10-10T08:21:08.256Z,11.21
2022-10-10T08:22:08.264Z,11.27
2022-10-10T08:23:08.229Z,11.29
2022-10-10T08:24:08.241Z,11.35
2022-10-10T08:25:08.204Z,11.47
2022-10-10T08:26:08.195Z,11.53
2022-10-10T08:27:08.181Z,11.62
2022-10-10T08:28:08.184Z,11.72
2022-10-10T08:29:08.192Z,11.83
2022-10-10T08:30:08.147Z,11.90
2022-10-10T08:31:08.126Z,12.02
2022-10-10T08:32:08.104Z,12.04
2022-10-10T08:33:08.133Z,12.05
2022-10-10T08:34:08.085Z,12.05
2022-10-10T08:35:08.074Z,12.11
2022-10-10T08:36:08.071Z,12.15
2022-10-10T08:37:08.049Z,12.21
2022-10-10T08:38:08.058Z,12.26
2022-10-10T08:39:08.014Z,12.24
2022-10-10T08:40:08.004Z,12.31
2022-10-10T08:41:07.996Z,12.44
2022-10-10T08:42:08.016Z,12.56
2022-10-10T08:43:07.986Z,12.66
2022-10-10T08:44:07.992Z,12.78
2022-10-10T08:45:07.943Z,12.87
2022-10-10T08:46:07.927Z,12.95
2022-10-10T08:47:07.934Z,12.99
2022-10-10T08:48:07.906Z,12.97
2022-10-10T08:49:11.783Z,13.03
2022-10-10T08:50:08.898Z,13.11
2022-10-10T08:51:07.877Z,13.18
2022-10-10T08:52:07.848Z,13.22
2022-10-10T08:53:07.850Z,13.37
2022-10-10T08:54:07.837Z,13.47
2022-10-10T08:55:07.827Z,13.56
2022-10-10T08:56:07.802Z,13.63
2022-10-10T08:57:07.818Z,13.73
2022-10-10T08:58:07.773Z,13.83
2022-10-10T08:59:07.779Z,13.92
2022-10-10T09:00:07.785Z,13.95
2022-10-10T09:01:08.142Z,14.02
2022-10-10T09:02:18.666Z,14.01
2022-10-10T09:03:08.703Z,13.96
2022-10-10T09:04:07.710Z,13.92
2022-10-10T09:05:07.692Z,13.95
2022-10-10T09:06:07.674Z,13.96
2022-10-10T09:07:07.651Z,14.10
2022-10-10T09:08:10.417Z,14.07
2022-10-10T09:09:07.637Z,14.09
2022-10-10T09:10:07.611Z,14.19
2022-10-10T09:11:07.605Z,14.21
2022-10-10T09:12:07.591Z,14.20
2022-10-10T09:13:07.588Z,14.17
2022-10-10T09:14:07.580Z,14.20
2022-10-10T09:15:07.564Z,14.21
2022-10-10T09:16:07.548Z,14.27
2022-10-10T09:17:07.553Z,14.35
2022-10-10T09:18:07.524Z,14.42
2022-10-10T09:19:07.605Z,14.52
2022-10-10T09:20:07.480Z,14.47
2022-10-10T09:21:07.478Z,14.47
2022-10-10T09:22:07.461Z,14.52
2022-10-10T09:23:07.450Z,14.62
2022-10-10T09:24:07.539Z,14.68
2022-10-10T09:25:07.414Z,14.71
2022-10-10T09:26:11.075Z,14.69
2022-10-10T09:27:07.402Z,14.67
2022-10-10T09:28:07.422Z,14.71
2022-10-10T09:29:07.491Z,14.84
2022-10-10T09:30:07.390Z,14.88
2022-10-10T09:31:07.336Z,14.99
2022-10-10T09:32:07.332Z,15.08
2022-10-10T09:33:07.317Z,15.08
2022-10-10T09:34:07.315Z,15.13
2022-10-10T09:35:07.296Z,15.19
2022-10-10T09:36:07.263Z,15.21
2022-10-10T09:37:07.300Z,15.28
2022-10-10T09:38:07.270Z,15.26
2022-10-10T09:39:07.262Z,15.23
2022-10-10T09:40:07.212Z,15.31
2022-10-10T09:41:07.205Z,15.43
2022-10-10T09:42:07.188Z,15.51
2022-10-10T09:43:10.201Z,15.61
2022-10-10T09:44:07.202Z,15.52
2022-10-10T09:45:07.145Z,15.51
2022-10-10T09:46:07.134Z,15.54
2022-10-10T09:47:07.138Z,15.54
2022-10-10T09:48:07.098Z,15.51
2022-10-10T09:49:07.140Z,15.54
2022-10-10T09:50:07.087Z,15.38
2022-10-10T09:51:07.084Z,15.33
2022-10-10T09:52:07.089Z,15.38
2022-10-10T09:53:07.059Z,15.51
2022-10-10T09:54:07.049Z,15.49
2022-10-10T09:55:07.010Z,15.59
2022-10-10T09:56:06.998Z,15.74
2022-10-10T09:57:07.011Z,15.82
2022-10-10T09:58:06.992Z,15.66
2022-10-10T09:59:06.992Z,15.78
2022-10-10T10:00:06.935Z,15.85
2022-10-10T10:01:06.979Z,15.86
2022-10-10T10:02:06.938Z,15.97
2022-10-10T10:03:06.927Z,16.07
2022-10-10T10:04:23.468Z,16.06
2022-10-10T10:05:07.876Z,16.14
2022-10-10T10:06:06.885Z,16.06
2022-10-10T10:07:06.884Z,15.79
2022-10-10T10:08:06.876Z,15.75
2022-10-10T10:09:06.853Z,15.75
2022-10-10T10:10:06.815Z,15.67
2022-10-10T10:11:06.809Z,15.61
2022-10-10T10:12:06.823Z,15.70
2022-10-10T10:13:06.783Z,15.66
2022-10-10T10:14:06.841Z,15.74
2022-10-10T10:15:06.803Z,15.70
2022-10-10T10:16:06.799Z,15.64
2022-10-10T10:17:06.740Z,15.76
2022-10-10T10:18:06.791Z,15.96
2022-10-10T10:19:06.713Z,16.09
2022-10-10T10:20:10.735Z,16.09
2022-10-10T10:21:06.691Z,15.99
2022-10-10T10:22:06.655Z,16.03
2022-10-10T10:23:06.671Z,16.27
2022-10-10T10:24:06.657Z,16.38
2022-10-10T10:25:06.622Z,16.27
2022-10-10T10:26:06.625Z,16.37
2022-10-10T10:27:06.616Z,16.45
2022-10-10T10:28:06.679Z,16.48
2022-10-10T10:29:06.585Z,16.55
2022-10-10T10:30:06.581Z,16.50
2022-10-10T10:31:06.549Z,16.60
2022-10-10T10:32:06.521Z,16.63
2022-10-10T10:33:06.519Z,16.73
2022-10-10T10:34:06.518Z,16.78
2022-10-10T10:35:06.628Z,16.93
2022-10-10T10:36:06.477Z,16.88
2022-10-10T10:37:06.512Z,16.95
2022-10-10T10:38:06.456Z,16.99
2022-10-10T10:39:06.456Z,16.95
2022-10-10T10:40:06.438Z,17.11
2022-10-10T10:41:06.456Z,17.30
2022-10-10T10:42:06.381Z,17.25
2022-10-10T10:43:06.410Z,17.30
2022-10-10T10:44:06.377Z,17.26
2022-10-10T10:45:06.407Z,17.30
2022-10-10T10:46:06.329Z,17.32
2022-10-10T10:47:06.332Z,17.22
2022-10-10T10:48:06.368Z,17.29
2022-10-10T10:49:06.374Z,17.30
2022-10-10T10:50:06.305Z,17.25
2022-10-10T10:51:06.309Z,17.17
2022-10-10T10:52:06.311Z,17.35
2022-10-10T10:53:06.259Z,17.59
2022-10-10T10:54:06.257Z,17.84
2022-10-10T10:55:06.230Z,17.76
2022-10-10T10:56:06.202Z,17.78
2022-10-10T10:57:06.640Z,17.87
2022-10-10T10:59:41.803Z,18.24
2022-10-10T11:00:25.738Z,18.31
2022-10-10T11:01:23.213Z,18.09
2022-10-10T11:02:07.421Z,17.91
2022-10-10T11:03:27.739Z,17.73
2022-10-10T11:05:18.208Z,17.48
2022-10-10T11:05:23.086Z,17.18
2022-10-10T11:06:07.237Z,17.15
2022-10-10T11:07:18.361Z,17.08
2022-10-10T11:08:07.043Z,16.88
2022-10-10T11:09:06.068Z,16.78
2022-10-10T11:10:06.084Z,16.70
2022-10-10T11:11:06.013Z,16.80
2022-10-10T11:12:06.055Z,16.74
2022-10-10T11:13:05.974Z,16.74
2022-10-10T11:14:05.971Z,16.77
2022-10-10T11:15:05.992Z,16.70
2022-10-10T11:16:09.759Z,16.81
2022-10-10T11:17:06.925Z,16.88
2022-10-10T11:18:05.912Z,17.00
2022-10-10T11:19:05.903Z,16.98
2022-10-10T11:20:05.890Z,16.86
2022-10-10T11:21:05.880Z,16.80
2022-10-10T11:22:05.853Z,16.77
2022-10-10T11:23:09.076Z,16.77
2022-10-10T11:24:05.854Z,16.70
2022-10-10T11:25:05.854Z,16.74
2022-10-10T11:26:05.804Z,16.90
2022-10-10T11:27:05.809Z,17.18
2022-10-10T11:28:05.845Z,17.41
2022-10-10T11:29:05.882Z,17.84
2022-10-10T11:30:05.761Z,18.10
2022-10-10T11:31:05.755Z,18.18
2022-10-10T11:32:06.029Z,18.22
2022-10-10T11:33:05.704Z,18.12
2022-10-10T11:34:05.734Z,18.12
2022-10-10T11:35:05.686Z,18.17
2022-10-10T11:36:05.679Z,18.31
2022-10-10T11:37:05.653Z,18.28
2022-10-10T11:38:05.638Z,18.13
2022-10-10T11:39:05.651Z,18.22
2022-10-10T11:40:05.617Z,18.19
2022-10-10T11:41:05.606Z,18.10
2022-10-10T11:42:05.642Z,17.99
2022-10-10T11:43:05.577Z,18.12
2022-10-10T11:44:05.584Z,18.00
2022-10-10T11:45:05.557Z,17.91
2022-10-10T11:46:05.759Z,17.91
2022-10-10T11:47:05.573Z,18.10
2022-10-10T11:48:05.512Z,18.29
2022-10-10T11:49:05.510Z,18.27
2022-10-10T11:50:05.490Z,18.10
2022-10-10T11:51:05.498Z,18.06
2022-10-10T11:52:32.073Z,17.95
2022-10-10T11:53:06.454Z,18.24
2022-10-10T11:54:05.517Z,18.40
2022-10-10T11:55:05.425Z,18.19
2022-10-10T11:56:05.401Z,18.15
2022-10-10T11:57:06.675Z,18.21
2022-10-10T11:58:05.385Z,18.29
2022-10-10T11:59:05.385Z,18.47
2022-10-10T12:00:05.359Z,18.55
2022-10-10T12:01:05.374Z,18.54
2022-10-10T12:02:05.331Z,18.34
2022-10-10T12:03:05.435Z,18.18
2022-10-10T12:04:05.323Z,18.43
2022-10-10T12:05:05.292Z,18.70
2022-10-10T12:06:05.272Z,18.84
2022-10-10T12:07:05.265Z,19.02
2022-10-10T12:08:05.256Z,19.21
2022-10-10T12:09:05.241Z,19.47
2022-10-10T12:10:05.221Z,19.60
2022-10-10T12:11:05.197Z,19.65
2022-10-10T12:12:05.202Z,19.73
2022-10-10T12:13:05.219Z,19.79
2022-10-10T12:14:05.199Z,19.42
2022-10-10T12:15:05.193Z,19.40
2022-10-10T12:16:05.473Z,19.36
2022-10-10T12:17:05.140Z,19.39
2022-10-10T12:18:05.127Z,19.32
2022-10-10T12:19:05.115Z,19.18
2022-10-10T12:20:05.087Z,18.57
2022-10-10T12:21:05.081Z,18.25
2022-10-10T12:22:05.086Z,18.22
2022-10-10T12:23:05.040Z,18.02
2022-10-10T12:24:05.050Z,17.73
2022-10-10T12:25:05.029Z,17.57
2022-10-10T12:26:05.004Z,17.71
2022-10-10T12:27:05.010Z,17.79
2022-10-10T12:28:04.979Z,17.82
2022-10-10T12:29:04.975Z,17.92
2022-10-10T12:30:04.957Z,18.09
2022-10-10T12:31:05.526Z,18.34
2022-10-10T12:32:04.928Z,18.54
2022-10-10T12:33:05.035Z,18.44
2022-10-10T12:34:04.946Z,18.50
2022-10-10T12:35:04.887Z,18.61
2022-10-10T12:36:04.889Z,18.70
2022-10-10T12:37:07.523Z,18.87
2022-10-10T12:38:04.861Z,19.17
2022-10-10T12:39:04.865Z,19.11
2022-10-10T12:40:04.846Z,19.21
2022-10-10T12:41:04.831Z,19.58
2022-10-10T12:42:04.795Z,19.79
2022-10-10T12:43:04.789Z,19.94
2022-10-10T12:44:04.802Z,19.73
2022-10-10T12:45:04.806Z,19.51
2022-10-10T12:46:04.753Z,19.43
2022-10-10T12:47:06.770Z,19.51
2022-10-10T12:48:06.465Z,19.76
2022-10-10T12:49:04.716Z,19.98
2022-10-10T12:50:04.728Z,20.06
2022-10-10T12:51:05.035Z,20.03
2022-10-10T12:52:04.676Z,20.03
2022-10-10T12:53:04.653Z,20.05
2022-10-10T12:54:04.654Z,19.97
2022-10-10T12:55:06.863Z,20.09
2022-10-10T12:56:04.627Z,20.25
2022-10-10T12:57:04.605Z,19.93
2022-10-10T12:58:04.601Z,19.51
2022-10-10T12:59:04.584Z,19.47
2022-10-10T13:00:04.597Z,19.32
2022-10-10T13:01:04.990Z,19.31
2022-10-10T13:02:04.670Z,19.13
2022-10-10T13:03:04.519Z,19.29
2022-10-10T13:04:04.514Z,19.60
2022-10-10T13:05:04.487Z,19.58
2022-10-10T13:06:04.480Z,19.73
2022-10-10T13:07:04.485Z,19.90